Meteo Giornale » Osservazioni meteo Stati Uniti (USA) » New York City Central Park

ore: 11:01 - Osservazioni Meteo New York City Central Park
Lat. 40° 47' N Lon. 73° 58' W Alt. 47 metri s.l.m.

poco_nuvoloso America/New_York

28 °C

Poco Nuvoloso

Temp. 24 Ore

24 °C

28 °C

Nord

5.5 Km/h

Dew point 22 °C

Umidità 69 %

Visibilità  10 Km

Il sole sorge alle ore 05:32

Il sole tramonta alle ore 20:30

Data e Ora Cielo e Fenomeni T °C DP °C Um. % Pres. hPa Vis. km Vento km/h
Oggi h: 11:01 poco_nuvoloso Poco Nuvoloso 28 22 69 1017 10 N 5.5
Oggi h: 10:51 molto_nuvoloso Molto Nuvoloso 28 22 69 1017 10 N 0
Oggi h: 09:51 coperto Coperto 27 22 74 1017 13 N 0
Oggi h: 08:51 sereno Sereno 26 22 78 1017 11 N 0
Oggi h: 07:51 poco_nuvoloso Poco Nuvoloso 25 22 83 1017 13 N 0
Oggi h: 06:51 sereno Sereno 25 22 83 1016 13 N 0
Oggi h: 05:51 sereno Sereno 24 22 88 1016 14 N 0
Oggi h: 03:51 sereno Sereno 24 21 83 1015 10 N 7.4
Oggi h: 02:51 sereno Sereno 24 21 83 1015 10 N 5.5
Oggi h: 01:51 sereno Sereno 24 21 83 1015 10 N 5.5
Oggi h: 00:51 sereno Sereno 25 21 78 1016 10 N 5.5
Ieri h: 23:51 sereno Sereno 25 22 83 1015 10 N 5.5
Ieri h: 22:51 sereno Sereno 24 23 94 1015 10 N 0
Ieri h: 20:51 sereno Sereno 26 23 83 1015 10 N 0
Ieri h: 19:51 sereno Sereno 26 22 78 1015 10 N 0
Ieri h: 18:51 sereno Sereno 27 23 78 1015 10 N 0
Ieri h: 17:51 coperto_pioggia Pioggia Debole 24 23 94 1015 14 N 9.3
Ieri h: 16:51 coperto_pioggia Pioggia Debole 24 21 83 1016 8 N 9.3
Ieri h: 15:51 poco_nuvoloso Poco Nuvoloso 27 21 69 1016 10 N 9.3
Ieri h: 14:51 sereno Sereno 28 22 69 1016 10 N 7.4
Ieri h: 13:51 coperto Coperto 27 22 74 1017 10 N 9.3
Ieri h: 12:51 coperto Coperto 27 22 74 1016 10 N 7.4
Ieri h: 11:51 coperto Coperto 28 22 69 1017 10 N 7.4